createdAt,value
2023-05-01T00:00:39.733Z,100435.75
2023-05-01T00:01:42.671Z,100434.00
2023-05-01T00:02:44.573Z,100435.73
2023-05-01T00:03:46.573Z,100433.98
2023-05-01T00:04:48.579Z,100436.58
2023-05-01T00:05:50.442Z,100432.27
2023-05-01T00:06:52.358Z,100430.55
2023-05-01T00:07:54.381Z,100442.70
2023-05-01T00:08:56.191Z,100441.81
2023-05-01T00:09:58.399Z,100445.30
2023-05-01T00:11:00.489Z,100444.37
2023-05-01T00:12:02.288Z,100449.58
2023-05-01T00:13:04.135Z,100453.92
2023-05-01T00:14:05.935Z,100457.39
2023-05-01T00:15:07.734Z,100445.28
2023-05-01T00:16:09.583Z,100450.50
2023-05-01T00:17:11.450Z,100453.11
2023-05-01T00:18:13.345Z,100454.82
2023-05-01T00:19:15.215Z,100454.81
2023-05-01T00:20:17.151Z,100454.82
2023-05-01T00:21:18.912Z,100459.19
2023-05-01T00:22:20.718Z,100457.44
2023-05-01T00:23:22.585Z,100457.44
2023-05-01T00:24:24.394Z,100460.03
2023-05-01T00:25:26.192Z,100461.75
2023-05-01T00:26:28.001Z,100454.79
2023-05-01T00:27:29.807Z,100456.55
2023-05-01T00:28:31.662Z,100460.91
2023-05-01T00:29:33.439Z,100458.33
2023-05-01T00:30:35.332Z,100466.14
2023-05-01T00:31:37.166Z,100459.19
2023-05-01T00:32:38.971Z,100460.03
2023-05-01T00:33:40.797Z,100460.92
2023-05-01T00:34:42.577Z,100453.99
2023-05-01T00:35:44.378Z,100454.86
2023-05-01T00:36:48.109Z,100452.27
2023-05-01T00:37:50.033Z,100461.80
2023-05-01T00:38:51.906Z,100451.41
2023-05-01T00:39:53.932Z,100455.75
2023-05-01T00:40:56.122Z,100458.36
2023-05-01T00:41:57.919Z,100460.06
2023-05-01T00:42:59.715Z,100458.34
2023-05-01T00:44:01.558Z,100454.86
2023-05-01T00:45:03.386Z,100455.73
2023-05-01T00:46:05.318Z,100450.52
2023-05-01T00:47:07.279Z,100456.58
2023-05-01T00:48:09.145Z,100453.13
2023-05-01T00:49:11.109Z,100450.52
2023-05-01T00:50:13.410Z,100453.98
2023-05-01T00:51:15.219Z,100450.53
2023-05-01T00:52:17.012Z,100451.39
2023-05-01T00:53:18.820Z,100449.64
2023-05-01T00:54:20.663Z,100447.92
2023-05-01T00:55:22.468Z,100445.32
2023-05-01T00:56:24.258Z,100450.52
2023-05-01T00:57:26.069Z,100448.77
2023-05-01T00:58:27.907Z,100446.16
2023-05-01T00:59:29.723Z,100448.77
2023-05-01T01:00:31.620Z,100453.11
2023-05-01T01:01:33.499Z,100447.91
2023-05-01T01:02:35.484Z,100447.88
2023-05-01T01:03:37.662Z,100445.28
2023-05-01T01:04:39.569Z,100446.13
2023-05-01T01:05:41.428Z,100450.47
2023-05-01T01:06:43.411Z,100446.08
2023-05-01T01:07:45.331Z,100439.95
2023-05-01T01:08:47.150Z,100449.48
2023-05-01T01:09:48.992Z,100442.53
2023-05-01T01:10:50.996Z,100441.65
2023-05-01T01:11:52.813Z,100440.79
2023-05-01T01:12:54.607Z,100441.64
2023-05-01T01:13:56.421Z,100447.70
2023-05-01T01:14:58.253Z,100438.19
2023-05-01T01:16:00.094Z,100448.59
2023-05-01T01:17:01.961Z,100448.59
2023-05-01T01:18:04.964Z,100451.20
2023-05-01T01:19:06.778Z,100456.39
2023-05-01T01:20:08.710Z,100445.03
2023-05-01T01:21:10.535Z,100447.61
2023-05-01T01:22:12.681Z,100447.59
2023-05-01T01:23:14.472Z,100449.34
2023-05-01T01:24:16.281Z,100444.13
2023-05-01T01:25:18.130Z,100449.30
2023-05-01T01:26:19.918Z,100451.00
2023-05-01T01:27:21.726Z,100442.31
2023-05-01T01:28:23.536Z,100445.76
2023-05-01T01:29:25.349Z,100445.76
2023-05-01T01:30:27.292Z,100449.27
2023-05-01T01:31:29.132Z,100447.51
2023-05-01T01:32:31.016Z,100448.38
2023-05-01T01:33:32.806Z,100447.53
2023-05-01T01:34:34.610Z,100450.13
2023-05-01T01:35:36.442Z,100457.06
2023-05-01T01:36:38.239Z,100451.84
2023-05-01T01:37:40.037Z,100451.84
2023-05-01T01:38:41.924Z,100446.65
2023-05-01T01:39:43.767Z,100445.77
2023-05-01T01:40:45.665Z,100449.27
2023-05-01T01:41:47.463Z,100449.27
2023-05-01T01:42:49.377Z,100441.47
2023-05-01T01:43:51.198Z,100450.13
2023-05-01T01:44:53.006Z,100445.78
2023-05-01T01:45:54.907Z,100450.15
2023-05-01T01:46:56.853Z,100456.18
2023-05-01T01:47:58.677Z,100459.66
2023-05-01T01:49:00.452Z,100459.63
2023-05-01T01:50:02.315Z,100464.80
2023-05-01T01:51:04.168Z,100467.41
2023-05-01T01:52:05.983Z,100463.91
2023-05-01T01:53:07.797Z,100463.05
2023-05-01T01:54:09.598Z,100470.86
2023-05-01T01:55:11.402Z,100466.52
2023-05-01T01:56:13.346Z,100459.63
2023-05-01T01:57:15.151Z,100461.34
2023-05-01T01:58:16.945Z,100470.03
2023-05-01T01:59:18.743Z,100475.21
2023-05-01T02:00:20.572Z,100469.06
2023-05-01T02:01:22.445Z,100469.93
2023-05-01T02:02:24.317Z,100465.58
2023-05-01T02:03:26.231Z,100469.04
2023-05-01T02:04:28.104Z,100470.77
2023-05-01T02:05:29.912Z,100470.79
2023-05-01T02:06:31.837Z,100468.19
2023-05-01T02:07:33.661Z,100471.65
2023-05-01T02:08:35.624Z,100469.95
2023-05-01T02:09:37.411Z,100477.75
2023-05-01T02:10:39.213Z,100477.66
2023-05-01T02:11:41.053Z,100477.62
2023-05-01T02:12:42.869Z,100474.98
2023-05-01T02:13:44.686Z,100479.31
2023-05-01T02:14:46.485Z,100481.05
2023-05-01T02:15:48.393Z,100481.06
2023-05-01T02:16:50.292Z,100482.78
2023-05-01T02:17:52.125Z,100485.40
2023-05-01T02:18:54.009Z,100494.07
2023-05-01T02:19:55.969Z,100494.91
2023-05-01T02:20:58.030Z,100493.14
2023-05-01T02:21:59.859Z,100500.11
2023-05-01T02:23:01.679Z,100495.77
2023-05-01T02:24:03.501Z,100493.17
2023-05-01T02:25:05.300Z,100500.95
2023-05-01T02:26:07.204Z,100501.84
2023-05-01T02:27:08.955Z,100502.73
2023-05-01T02:28:10.770Z,100502.73
2023-05-01T02:29:12.578Z,100503.62
2023-05-01T02:30:14.505Z,100503.59
2023-05-01T02:31:16.324Z,100501.00
2023-05-01T02:32:18.229Z,100502.73
2023-05-01T02:33:20.034Z,100504.49
2023-05-01T02:34:21.845Z,100506.20
2023-05-01T02:35:23.650Z,100498.42
2023-05-01T02:36:25.448Z,100505.35
2023-05-01T02:37:27.291Z,100508.81
2023-05-01T02:38:29.104Z,100512.29
2023-05-01T02:39:30.800Z,100515.73
2023-05-01T02:40:33.118Z,100516.54
2023-05-01T02:41:34.944Z,100515.65
2023-05-01T02:42:36.774Z,100523.45
2023-05-01T02:43:38.586Z,100514.80
2023-05-01T02:44:40.382Z,100524.34
2023-05-01T02:45:42.238Z,100520.89
2023-05-01T02:46:44.359Z,100527.86
2023-05-01T02:47:46.186Z,100521.78
2023-05-01T02:48:47.949Z,100520.94
2023-05-01T02:49:49.755Z,100527.02
2023-05-01T02:50:51.762Z,100532.21
2023-05-01T02:51:53.564Z,100529.63
2023-05-01T02:52:55.412Z,100527.94
2023-05-01T02:53:57.226Z,100533.16
2023-05-01T02:54:59.036Z,100532.31
2023-05-01T02:56:00.834Z,100534.92
2023-05-01T02:57:02.662Z,100536.63
2023-05-01T02:58:04.521Z,100534.92
2023-05-01T02:59:06.319Z,100536.61
2023-05-01T03:00:08.958Z,100539.24
2023-05-01T03:01:10.812Z,100533.19
2023-05-01T03:02:12.560Z,100540.14
2023-05-01T03:03:14.334Z,100539.24
2023-05-01T03:04:16.239Z,100544.45
2023-05-01T03:05:18.115Z,100540.97
2023-05-01T03:06:19.967Z,100542.64
2023-05-01T03:07:21.814Z,100540.91
2023-05-01T03:08:23.691Z,100556.47
2023-05-01T03:09:25.475Z,100550.38
2023-05-01T03:10:27.371Z,100554.73
2023-05-01T03:11:29.180Z,100565.16
2023-05-01T03:12:30.983Z,100559.13
2023-05-01T03:13:32.824Z,100565.16
2023-05-01T03:14:34.646Z,100563.42
2023-05-01T03:15:36.439Z,100559.95
2023-05-01T03:16:38.394Z,100564.28
2023-05-01T03:17:40.426Z,100560.81
2023-05-01T03:18:42.387Z,100565.16
2023-05-01T03:19:44.201Z,100565.20
2023-05-01T03:20:46.098Z,100573.91
2023-05-01T03:21:47.892Z,100571.30
2023-05-01T03:22:49.704Z,100570.41
2023-05-01T03:23:51.543Z,100566.92
2023-05-01T03:24:53.349Z,100569.53
2023-05-01T03:25:55.158Z,100574.73
2023-05-01T03:26:56.968Z,100575.59
2023-05-01T03:27:58.774Z,100578.17
2023-05-01T03:29:00.598Z,100574.73
2023-05-01T03:30:02.408Z,100577.34
2023-05-01T03:31:04.235Z,100582.56
2023-05-01T03:32:06.056Z,100583.42
2023-05-01T03:33:07.865Z,100585.16
2023-05-01T03:34:09.687Z,100589.50
2023-05-01T03:35:11.503Z,100585.98
2023-05-01T03:36:14.118Z,100590.34
2023-05-01T03:37:15.912Z,100588.60
2023-05-01T03:38:17.717Z,100586.02
2023-05-01T03:39:19.547Z,100592.13
2023-05-01T03:40:21.458Z,100595.59
2023-05-01T03:41:23.260Z,100601.66
2023-05-01T03:42:25.086Z,100597.36
2023-05-01T03:43:26.898Z,100595.57
2023-05-01T03:44:28.696Z,100600.72
2023-05-01T03:45:30.521Z,100598.08
2023-05-01T03:46:32.527Z,100591.12
2023-05-01T03:47:34.365Z,100597.17
2023-05-01T03:48:36.134Z,100599.77
2023-05-01T03:49:38.002Z,100590.27
2023-05-01T03:50:39.909Z,100601.55
2023-05-01T03:51:41.723Z,100594.59
2023-05-01T03:52:43.516Z,100609.34
2023-05-01T03:53:45.313Z,100604.14
2023-05-01T03:54:47.172Z,100604.13
2023-05-01T03:55:49.015Z,100601.48
2023-05-01T03:56:50.862Z,100599.72
2023-05-01T03:57:52.673Z,100600.61
2023-05-01T03:58:54.474Z,100610.09
2023-05-01T03:59:58.498Z,100612.63
2023-05-01T04:00:59.934Z,100603.09
2023-05-01T04:02:01.793Z,100599.59
2023-05-01T04:03:03.800Z,100603.06
2023-05-01T04:04:05.880Z,100600.46
2023-05-01T04:05:07.767Z,100604.77
2023-05-01T04:06:10.315Z,100610.85
2023-05-01T04:07:12.078Z,100602.95
2023-05-01T04:08:13.902Z,100608.06
2023-05-01T04:09:15.721Z,100613.23
2023-05-01T04:10:17.675Z,100607.20
2023-05-01T04:11:19.467Z,100608.11
2023-05-01T04:12:21.286Z,100609.80
2023-05-01T04:13:23.083Z,100607.16
2023-05-01T04:14:24.883Z,100609.78
2023-05-01T04:15:26.711Z,100608.02
2023-05-01T04:16:28.679Z,100614.11
2023-05-01T04:17:30.571Z,100608.86
2023-05-01T04:18:32.335Z,100608.80
2023-05-01T04:19:34.029Z,100607.92
2023-05-01T04:20:36.039Z,100611.41
2023-05-01T04:21:37.840Z,100613.99
2023-05-01T04:22:39.632Z,100608.80
2023-05-01T04:23:41.452Z,100613.12
2023-05-01T04:24:43.239Z,100615.69
2023-05-01T04:25:45.092Z,100607.82
2023-05-01T04:26:47.008Z,100612.16
2023-05-01T04:27:48.824Z,100612.19
2023-05-01T04:28:50.701Z,100609.62
2023-05-01T04:29:52.522Z,100616.53
2023-05-01T04:30:54.468Z,100613.05
2023-05-01T04:31:56.341Z,100620.89
2023-05-01T04:32:58.299Z,100619.13
2023-05-01T04:34:00.102Z,100618.29
2023-05-01T04:35:01.891Z,100616.61
2023-05-01T04:36:03.836Z,100619.27
2023-05-01T04:37:05.660Z,100621.89
2023-05-01T04:38:07.457Z,100624.48
2023-05-01T04:39:09.265Z,100619.29
2023-05-01T04:40:11.863Z,100619.27
2023-05-01T04:41:13.919Z,100620.91
2023-05-01T04:42:15.715Z,100620.84
2023-05-01T04:43:17.526Z,100626.02
2023-05-01T04:44:19.341Z,100631.21
2023-05-01T04:45:21.130Z,100626.86
2023-05-01T04:46:23.025Z,100626.87
2023-05-01T04:47:24.786Z,100628.63
2023-05-01T04:48:26.647Z,100625.20
2023-05-01T04:49:28.393Z,100626.92
2023-05-01T04:50:30.297Z,100627.86
2023-05-01T04:51:32.138Z,100629.59
2023-05-01T04:52:33.954Z,100633.91
2023-05-01T04:53:35.748Z,100634.80
2023-05-01T04:54:37.562Z,100629.61
2023-05-01T04:55:39.347Z,100637.42
2023-05-01T04:56:41.158Z,100632.19
2023-05-01T04:57:42.960Z,100632.11
2023-05-01T04:58:44.761Z,100638.16
2023-05-01T04:59:46.673Z,100638.09
2023-05-01T05:00:48.579Z,100636.34
2023-05-01T05:01:50.495Z,100631.98
2023-05-01T05:02:52.485Z,100637.13
2023-05-01T05:03:54.469Z,100639.73
2023-05-01T05:04:56.405Z,100634.45
2023-05-01T05:05:58.249Z,100636.18
2023-05-01T05:07:00.161Z,100634.45
2023-05-01T05:08:01.951Z,100640.53
2023-05-01T05:09:03.779Z,100635.36
2023-05-01T05:10:05.888Z,100642.23
2023-05-01T05:11:07.697Z,100634.45
2023-05-01T05:12:09.564Z,100635.36
2023-05-01T05:13:11.366Z,100648.37
2023-05-01T05:14:13.151Z,100641.44
2023-05-01T05:15:14.963Z,100640.63
2023-05-01T05:16:16.911Z,100643.24
2023-05-01T05:17:18.805Z,100646.72
2023-05-01T05:18:20.686Z,100651.91
2023-05-01T05:19:22.511Z,100640.64
2023-05-01T05:20:24.538Z,100645.86
2023-05-01T05:21:26.313Z,100647.58
2023-05-01T05:22:28.163Z,100650.20
2023-05-01T05:23:29.965Z,100654.58
2023-05-01T05:24:31.839Z,100656.36
2023-05-01T05:25:33.651Z,100652.05
2023-05-01T05:26:35.475Z,100652.05
2023-05-01T05:27:37.297Z,100651.16
2023-05-01T05:28:39.150Z,100651.12
2023-05-01T05:29:40.996Z,100658.02
2023-05-01T05:30:42.802Z,100651.12
2023-05-01T05:31:44.646Z,100645.03
2023-05-01T05:32:46.551Z,100658.89
2023-05-01T05:33:48.363Z,100658.86
2023-05-01T05:34:50.177Z,100652.80
2023-05-01T05:35:51.973Z,100662.34
2023-05-01T05:36:53.786Z,100658.84
2023-05-01T05:37:55.611Z,100660.55
2023-05-01T05:38:57.432Z,100655.35
2023-05-01T05:39:59.226Z,100663.19
2023-05-01T05:41:01.181Z,100660.61
2023-05-01T05:42:02.928Z,100659.75
2023-05-01T05:43:04.775Z,100665.83
2023-05-01T05:44:06.579Z,100662.39
2023-05-01T05:45:08.396Z,100655.44
2023-05-01T05:46:10.417Z,100673.72
2023-05-01T05:47:12.297Z,100674.51
2023-05-01T05:48:14.042Z,100669.23
2023-05-01T05:49:16.072Z,100672.59
2023-05-01T05:50:17.935Z,100672.55
2023-05-01T05:51:19.818Z,100674.30
2023-05-01T05:52:21.630Z,100677.78
2023-05-01T05:53:25.758Z,100682.14
2023-05-01T05:54:27.091Z,100681.24
2023-05-01T05:55:28.923Z,100679.52
2023-05-01T05:56:30.809Z,100674.35
2023-05-01T05:57:32.618Z,100680.42
2023-05-01T05:58:34.470Z,100685.67
2023-05-01T05:59:36.275Z,100680.48
2023-05-01T06:00:38.074Z,100678.67
2023-05-01T06:01:39.883Z,100676.90
2023-05-01T06:02:41.817Z,100684.66
2023-05-01T06:03:43.805Z,100677.72
2023-05-01T06:04:45.658Z,100691.56
2023-05-01T06:05:47.532Z,100687.23
2023-05-01T06:06:49.446Z,100688.05
2023-05-01T06:07:51.296Z,100690.65
2023-05-01T06:08:53.141Z,100689.73
2023-05-01T06:09:55.386Z,100688.84
2023-05-01T06:10:57.419Z,100690.55
2023-05-01T06:11:59.213Z,100688.84
2023-05-01T06:13:05.867Z,100690.63
2023-05-01T06:14:04.663Z,100691.53
2023-05-01T06:15:06.469Z,100693.36
2023-05-01T06:16:08.625Z,100690.00
2023-05-01T06:17:10.468Z,100693.55
2023-05-01T06:18:12.343Z,100697.95
2023-05-01T06:19:14.238Z,100693.59
2023-05-01T06:20:16.348Z,100691.00
2023-05-01T06:21:18.148Z,100691.91
2023-05-01T06:22:19.966Z,100690.20
2023-05-01T06:23:21.763Z,100700.52
2023-05-01T06:24:23.600Z,100697.03
2023-05-01T06:25:25.416Z,100700.50
2023-05-01T06:26:27.419Z,100695.26
2023-05-01T06:27:29.245Z,100696.00
2023-05-01T06:28:31.114Z,100695.95
2023-05-01T06:29:32.958Z,100694.20
2023-05-01T06:30:35.513Z,100695.95
2023-05-01T06:31:39.437Z,100699.47
2023-05-01T06:32:41.324Z,100697.78
2023-05-01T06:33:43.106Z,100702.98
2023-05-01T06:34:46.427Z,100697.81
2023-05-01T06:35:48.204Z,100703.91
2023-05-01T06:36:50.304Z,100708.29
2023-05-01T06:37:52.132Z,100700.50
2023-05-01T06:38:53.944Z,100706.51
2023-05-01T06:39:56.020Z,100705.63
2023-05-01T06:40:58.208Z,100710.81
2023-05-01T06:41:59.997Z,100703.89
2023-05-01T06:43:02.852Z,100710.84
2023-05-01T06:44:05.887Z,100718.63
2023-05-01T06:45:07.966Z,100716.87
2023-05-01T06:46:10.708Z,100711.61
2023-05-01T06:47:12.679Z,100715.96
2023-05-01T06:48:14.695Z,100712.45
2023-05-01T06:49:16.533Z,100715.02
2023-05-01T06:50:18.602Z,100719.34
2023-05-01T06:51:21.529Z,100714.16
2023-05-01T06:52:23.344Z,100716.80
2023-05-01T06:53:25.162Z,100724.64
2023-05-01T06:54:27.480Z,100715.96
2023-05-01T06:55:29.930Z,100716.77
2023-05-01T06:56:31.752Z,100719.38
2023-05-01T06:57:33.556Z,100720.26
2023-05-01T06:58:35.458Z,100720.33
2023-05-01T06:59:37.268Z,100729.92
2023-05-01T07:00:39.123Z,100716.97
2023-05-01T07:01:40.975Z,100717.03
2023-05-01T07:02:42.865Z,100719.61
2023-05-01T07:03:44.867Z,100718.75
2023-05-01T07:04:46.668Z,100723.96
2023-05-01T07:05:48.682Z,100718.81
2023-05-01T07:06:50.763Z,100729.27
2023-05-01T07:08:00.835Z,100729.27
2023-05-01T07:08:56.188Z,100728.48
2023-05-01T07:09:58.406Z,100729.38
2023-05-01T07:11:00.563Z,100723.33
2023-05-01T07:12:02.259Z,100738.95
2023-05-01T07:13:04.092Z,100730.25
2023-05-01T07:14:05.918Z,100738.91
2023-05-01T07:15:07.756Z,100734.60
2023-05-01T07:16:09.631Z,100738.06
2023-05-01T07:17:11.487Z,100733.72
2023-05-01T07:18:13.309Z,100735.42
2023-05-01T07:19:15.109Z,100737.12
2023-05-01T07:20:17.031Z,100741.48
2023-05-01T07:21:18.836Z,100741.51
2023-05-01T07:22:20.640Z,100732.03
2023-05-01T07:23:22.465Z,100738.19
2023-05-01T07:24:24.306Z,100737.39
2023-05-01T07:25:26.114Z,100740.06
2023-05-01T07:26:28.067Z,100741.86
2023-05-01T07:27:29.893Z,100739.28
2023-05-01T07:28:31.705Z,100738.48
2023-05-01T07:29:33.508Z,100742.02
2023-05-01T07:30:35.517Z,100743.78
2023-05-01T07:31:37.387Z,100748.13
2023-05-01T07:32:39.309Z,100742.86
2023-05-01T07:33:41.115Z,100742.86
2023-05-01T07:34:42.933Z,100752.44
2023-05-01T07:35:44.748Z,100745.52
2023-05-01T07:36:46.607Z,100755.92
2023-05-01T07:37:48.400Z,100751.58
2023-05-01T07:38:50.227Z,100757.66
2023-05-01T07:39:52.155Z,100755.98
2023-05-01T07:40:53.954Z,100755.14
2023-05-01T07:41:55.792Z,100757.84
2023-05-01T07:42:57.594Z,100765.66
2023-05-01T07:43:59.432Z,100763.05
2023-05-01T07:45:01.368Z,100765.63
2023-05-01T07:46:03.650Z,100769.12
2023-05-01T07:47:05.632Z,100768.22
2023-05-01T07:48:07.525Z,100771.59
2023-05-01T07:49:09.457Z,100768.95
2023-05-01T07:50:11.375Z,100774.11
2023-05-01T07:51:13.186Z,100772.35
2023-05-01T07:52:15.003Z,100774.11
2023-05-01T07:53:16.819Z,100772.39
2023-05-01T07:54:18.523Z,100771.55
2023-05-01T07:55:20.399Z,100775.90
2023-05-01T07:56:22.326Z,100775.05
2023-05-01T07:57:24.166Z,100775.92
2023-05-01T07:58:25.968Z,100785.47
2023-05-01T07:59:27.782Z,100784.61
2023-05-01T08:00:29.615Z,100782.85
2023-05-01T08:01:31.436Z,100780.25
2023-05-01T08:02:33.354Z,100776.83
2023-05-01T08:03:35.243Z,100775.92
2023-05-01T08:04:37.178Z,100784.59
2023-05-01T08:05:39.131Z,100780.28
2023-05-01T08:06:41.145Z,100775.09
2023-05-01T08:07:43.035Z,100783.76
2023-05-01T08:08:44.849Z,100775.08
2023-05-01T08:09:46.669Z,100778.52
2023-05-01T08:10:48.473Z,100775.90
2023-05-01T08:11:50.326Z,100779.41
2023-05-01T08:12:52.226Z,100781.21
2023-05-01T08:13:53.982Z,100777.80
2023-05-01T08:14:55.798Z,100772.64
2023-05-01T08:15:57.618Z,100783.99
2023-05-01T08:16:59.509Z,100779.70
2023-05-01T08:18:01.392Z,100782.31
2023-05-01T08:19:03.180Z,100782.35
2023-05-01T08:20:05.209Z,100785.87
2023-05-01T08:21:07.047Z,100778.87
2023-05-01T08:22:08.831Z,100783.14
2023-05-01T08:23:10.720Z,100782.25
2023-05-01T08:24:12.549Z,100783.95
2023-05-01T08:25:16.649Z,100780.40
2023-05-01T08:26:19.479Z,100776.94
2023-05-01T08:27:22.222Z,100787.34
2023-05-01T08:28:24.064Z,100783.02
2023-05-01T08:29:25.896Z,100793.50
2023-05-01T08:30:27.767Z,100786.59
2023-05-01T08:31:29.611Z,100785.72
2023-05-01T08:32:31.320Z,100786.58
2023-05-01T08:33:33.256Z,100781.33
2023-05-01T08:34:35.067Z,100793.48
2023-05-01T08:35:36.867Z,100786.59
2023-05-01T08:36:38.796Z,100782.25
2023-05-01T08:37:40.604Z,100790.94
2023-05-01T08:38:42.456Z,100796.14
2023-05-01T08:39:44.290Z,100790.92
2023-05-01T08:40:46.188Z,100787.44
2023-05-01T08:41:48.018Z,100794.38
2023-05-01T08:42:49.822Z,100784.84
2023-05-01T08:43:51.654Z,100786.58
2023-05-01T08:44:53.459Z,100790.08
2023-05-01T08:45:55.286Z,100795.30
2023-05-01T08:46:57.127Z,100792.70
2023-05-01T08:47:59.022Z,100793.54
2023-05-01T08:49:00.925Z,100792.70
2023-05-01T08:50:02.839Z,100794.45
2023-05-01T08:51:04.655Z,100799.63
2023-05-01T08:52:06.457Z,100798.73
2023-05-01T08:53:08.321Z,100801.34
2023-05-01T08:54:10.517Z,100813.48
2023-05-01T08:55:12.308Z,100811.73
2023-05-01T08:56:14.110Z,100805.67
2023-05-01T08:57:15.943Z,100808.28
2023-05-01T08:58:17.763Z,100803.94
2023-05-01T08:59:19.603Z,100808.34
2023-05-01T09:00:21.558Z,100812.72
2023-05-01T09:01:23.417Z,100808.36
2023-05-01T09:02:25.387Z,100811.88
2023-05-01T09:03:27.200Z,100815.36
2023-05-01T09:04:29.096Z,100818.81
2023-05-01T09:05:30.896Z,100818.80
2023-05-01T09:06:32.852Z,100820.52
2023-05-01T09:07:34.617Z,100817.86
2023-05-01T09:08:36.432Z,100821.31
2023-05-01T09:09:38.283Z,100823.98
2023-05-01T09:10:40.204Z,100829.20
2023-05-01T09:11:42.011Z,100830.94
2023-05-01T09:12:43.832Z,100826.60
2023-05-01T09:13:45.631Z,100828.36
2023-05-01T09:14:47.500Z,100829.20
2023-05-01T09:15:49.310Z,100834.38
2023-05-01T09:16:51.564Z,100828.28
2023-05-01T09:17:53.514Z,100829.13
2023-05-01T09:18:55.359Z,100837.77
2023-05-01T09:19:57.473Z,100836.02
2023-05-01T09:20:59.430Z,100833.44
2023-05-01T09:22:01.230Z,100830.84
2023-05-01T09:23:03.037Z,100840.34
2023-05-01T09:24:04.850Z,100835.10
2023-05-01T09:25:06.724Z,100830.80
2023-05-01T09:26:08.933Z,100833.44
2023-05-01T09:27:10.742Z,100841.28
2023-05-01T09:28:12.558Z,100830.88
2023-05-01T09:29:14.362Z,100831.72
2023-05-01T09:30:16.543Z,100845.56
2023-05-01T09:31:18.424Z,100837.72
2023-05-01T09:32:20.788Z,100836.87
2023-05-01T09:33:22.916Z,100839.52
2023-05-01T09:34:24.702Z,100838.70
2023-05-01T09:35:26.552Z,100837.80
2023-05-01T09:36:28.374Z,100843.88
2023-05-01T09:37:30.175Z,100838.66
2023-05-01T09:38:31.964Z,100842.96
2023-05-01T09:39:33.780Z,100848.19
2023-05-01T09:40:35.709Z,100845.68
2023-05-01T09:41:37.509Z,100849.16
2023-05-01T09:42:39.316Z,100838.77
2023-05-01T09:43:41.109Z,100845.78
2023-05-01T09:44:42.940Z,100850.10
2023-05-01T09:45:44.838Z,100845.78
2023-05-01T09:46:46.976Z,100848.38
2023-05-01T09:47:48.848Z,100839.61
2023-05-01T09:48:51.072Z,100856.17
2023-05-01T09:49:52.958Z,100855.30
2023-05-01T09:50:54.817Z,100851.77
2023-05-01T09:51:56.607Z,100856.97
2023-05-01T09:52:58.396Z,100856.95
2023-05-01T09:54:00.219Z,100859.55
2023-05-01T09:55:02.005Z,100861.30
2023-05-01T09:56:03.862Z,100864.00
2023-05-01T09:57:05.674Z,100871.05
2023-05-01T09:58:07.475Z,100871.05
2023-05-01T09:59:09.278Z,100866.78
2023-05-01T10:00:11.407Z,100864.20
2023-05-01T10:01:13.326Z,100877.27
2023-05-01T10:02:15.204Z,100877.25
2023-05-01T10:03:17.104Z,100874.61
2023-05-01T10:04:19.009Z,100871.09
2023-05-01T10:05:20.849Z,100871.11
2023-05-01T10:06:22.784Z,100877.17
2023-05-01T10:07:24.679Z,100884.08
2023-05-01T10:08:26.473Z,100887.59
2023-05-01T10:09:28.275Z,100881.50
2023-05-01T10:10:30.185Z,100880.63
2023-05-01T10:11:32.014Z,100884.97
2023-05-01T10:12:33.829Z,100891.08
2023-05-01T10:13:35.644Z,100890.23
2023-05-01T10:14:37.454Z,100891.98
2023-05-01T10:15:39.245Z,100891.10
2023-05-01T10:16:41.234Z,100895.44
2023-05-01T10:17:43.247Z,100896.30
2023-05-01T10:18:45.104Z,100893.70
2023-05-01T10:19:46.917Z,100895.42
2023-05-01T10:20:48.917Z,100902.29
2023-05-01T10:21:50.765Z,100895.34
2023-05-01T10:22:52.589Z,100903.12
2023-05-01T10:23:54.400Z,100910.01
2023-05-01T10:24:56.182Z,100900.48
2023-05-01T10:25:57.989Z,100903.92
2023-05-01T10:27:00.033Z,100905.66
2023-05-01T10:28:01.833Z,100903.10
2023-05-01T10:29:03.669Z,100906.61
2023-05-01T10:30:05.678Z,100904.03
2023-05-01T10:31:07.568Z,100907.52
2023-05-01T10:32:09.552Z,100909.31
2023-05-01T10:33:11.425Z,100913.67
2023-05-01T10:34:13.254Z,100917.16
2023-05-01T10:35:15.115Z,100915.41
2023-05-01T10:36:17.067Z,100913.61
2023-05-01T10:37:18.925Z,100915.27
2023-05-01T10:38:20.705Z,100913.53
2023-05-01T10:39:22.491Z,100909.20
2023-05-01T10:40:24.417Z,100916.19
2023-05-01T10:41:26.241Z,100913.59
2023-05-01T10:42:28.210Z,100917.94
2023-05-01T10:43:29.907Z,100924.04
2023-05-01T10:44:31.719Z,100923.23
2023-05-01T10:45:35.248Z,100918.02
2023-05-01T10:46:37.389Z,100920.52
2023-05-01T10:47:39.307Z,100931.80
2023-05-01T10:48:41.083Z,100927.42
2023-05-01T10:49:42.887Z,100922.15
2023-05-01T10:50:44.682Z,100921.24
2023-05-01T10:51:46.517Z,100931.60
2023-05-01T10:52:48.350Z,100927.19
2023-05-01T10:53:50.190Z,100924.56
2023-05-01T10:54:52.072Z,100937.59
2023-05-01T10:55:53.901Z,100937.64
2023-05-01T10:56:55.822Z,100939.33
2023-05-01T10:57:57.629Z,100942.72
2023-05-01T10:58:59.432Z,100935.73
2023-05-01T11:00:01.240Z,100942.70
2023-05-01T11:01:03.055Z,100945.32
2023-05-01T11:02:04.970Z,100937.52
2023-05-01T11:03:06.800Z,100944.45
2023-05-01T11:04:08.658Z,100947.12
2023-05-01T11:05:10.604Z,100943.71
2023-05-01T11:06:12.897Z,100947.27
2023-05-01T11:07:15.033Z,100951.60
2023-05-01T11:08:16.927Z,100949.88
2023-05-01T11:09:18.755Z,100962.88
2023-05-01T11:10:20.812Z,100957.66
2023-05-01T11:11:22.567Z,100955.87
2023-05-01T11:12:24.396Z,100951.53
2023-05-01T11:13:26.226Z,100955.90
2023-05-01T11:14:28.038Z,100957.61
2023-05-01T11:15:29.849Z,100961.86
2023-05-01T11:16:31.695Z,100953.97
2023-05-01T11:17:33.517Z,100954.78
2023-05-01T11:18:35.410Z,100957.38
2023-05-01T11:19:37.107Z,100961.70
2023-05-01T11:20:39.013Z,100965.16
2023-05-01T11:21:40.811Z,100967.78
2023-05-01T11:22:42.605Z,100974.77
2023-05-01T11:23:44.573Z,100967.80
2023-05-01T11:24:46.405Z,100967.78
2023-05-01T11:25:48.246Z,100979.95
2023-05-01T11:26:50.585Z,100979.08
2023-05-01T11:27:52.400Z,100982.52
2023-05-01T11:28:54.244Z,100979.06
2023-05-01T11:29:56.060Z,100974.70
2023-05-01T11:30:58.069Z,100977.25
2023-05-01T11:31:59.935Z,100977.25
2023-05-01T11:33:01.820Z,100986.78
2023-05-01T11:34:03.833Z,100984.13
2023-05-01T11:35:05.643Z,100983.16
2023-05-01T11:36:08.650Z,100980.54
2023-05-01T11:37:10.487Z,100983.14
2023-05-01T11:38:12.295Z,100985.73
2023-05-01T11:39:16.387Z,100991.83
2023-05-01T11:40:19.316Z,100990.97
2023-05-01T11:41:21.203Z,100987.52
2023-05-01T11:42:23.042Z,100997.06
2023-05-01T11:43:25.143Z,100993.59
2023-05-01T11:44:26.983Z,100991.86
2023-05-01T11:45:28.906Z,100989.26
2023-05-01T11:46:30.960Z,100999.71